createdAt,value
2019-06-20T00:01:21.898Z,2.33
2019-06-20T00:03:48.670Z,2.77
2019-06-20T00:06:15.422Z,2.10
2019-06-20T00:08:42.199Z,2.00
2019-06-20T00:11:08.940Z,2.30
2019-06-20T00:13:35.718Z,2.13
2019-06-20T00:16:02.792Z,1.97
2019-06-20T00:18:29.572Z,2.13
2019-06-20T00:20:56.472Z,2.07
2019-06-20T00:23:23.083Z,2.00
2019-06-20T00:25:49.842Z,2.30
2019-06-20T00:28:16.644Z,2.93
2019-06-20T00:30:43.439Z,2.40
2019-06-20T00:33:10.222Z,2.70
2019-06-20T00:35:36.975Z,2.57
2019-06-20T00:38:03.763Z,2.13
2019-06-20T00:40:30.524Z,2.53
2019-06-20T00:42:57.287Z,2.53
2019-06-20T00:45:24.072Z,2.90
2019-06-20T00:47:50.876Z,2.37
2019-06-20T00:50:17.635Z,2.80
2019-06-20T00:52:44.407Z,2.30
2019-06-20T00:55:11.162Z,2.40
2019-06-20T00:57:37.955Z,2.40
2019-06-20T01:00:05.265Z,2.77
2019-06-20T01:02:32.016Z,2.00
2019-06-20T01:04:58.771Z,2.10
2019-06-20T01:07:25.528Z,2.30
2019-06-20T01:09:52.269Z,2.50
2019-06-20T01:12:19.075Z,2.13
2019-06-20T01:14:45.842Z,2.13
2019-06-20T01:17:13.703Z,2.20
2019-06-20T01:19:40.478Z,2.33
2019-06-20T01:22:07.388Z,2.23
2019-06-20T01:24:34.162Z,2.40
2019-06-20T01:27:00.983Z,3.03
2019-06-20T01:29:27.731Z,2.47
2019-06-20T01:31:54.482Z,2.60
2019-06-20T01:34:21.248Z,2.87
2019-06-20T01:36:48.010Z,2.53
2019-06-20T01:39:14.776Z,2.80
2019-06-20T01:41:41.533Z,2.77
2019-06-20T01:44:08.306Z,3.30
2019-06-20T01:46:35.069Z,2.77
2019-06-20T01:49:01.859Z,2.80
2019-06-20T01:51:28.678Z,2.90
2019-06-20T01:53:55.463Z,3.00
2019-06-20T01:56:22.262Z,3.07
2019-06-20T01:58:49.015Z,2.80
2019-06-20T02:01:15.774Z,2.40
2019-06-20T02:03:42.543Z,2.93
2019-06-20T02:06:09.309Z,3.00
2019-06-20T02:08:36.074Z,2.77
2019-06-20T02:11:02.841Z,2.80
2019-06-20T02:13:29.631Z,2.67
2019-06-20T02:15:56.438Z,3.00
2019-06-20T02:18:23.203Z,3.10
2019-06-20T02:20:51.098Z,2.83
2019-06-20T02:23:17.941Z,2.97
2019-06-20T02:25:44.731Z,3.40
2019-06-20T02:28:11.525Z,3.65
2019-06-20T02:30:38.292Z,3.57
2019-06-20T02:33:05.065Z,3.07
2019-06-20T02:35:31.845Z,3.10
2019-06-20T02:37:58.577Z,3.10
2019-06-20T02:40:25.360Z,3.10
2019-06-20T02:42:52.152Z,2.90
2019-06-20T02:45:18.908Z,2.80
2019-06-20T02:47:45.653Z,2.50
2019-06-20T02:50:12.416Z,2.60
2019-06-20T02:52:39.160Z,3.45
2019-06-20T02:55:05.911Z,2.97
2019-06-20T02:57:32.688Z,2.80
2019-06-20T02:59:59.454Z,2.90
2019-06-20T03:02:26.261Z,2.40
2019-06-20T03:04:53.019Z,3.27
2019-06-20T03:07:19.762Z,2.40
2019-06-20T03:09:46.512Z,3.10
2019-06-20T03:12:13.254Z,3.43
2019-06-20T03:14:45.381Z,2.67
2019-06-20T03:17:06.935Z,2.60
2019-06-20T03:19:33.700Z,2.50
2019-06-20T03:22:00.443Z,3.43
2019-06-20T03:24:27.226Z,2.70
2019-06-20T03:26:53.992Z,2.20
2019-06-20T03:29:20.754Z,2.53
2019-06-20T03:31:47.541Z,3.10
2019-06-20T03:34:14.310Z,2.63
2019-06-20T03:36:41.031Z,3.23
2019-06-20T03:39:07.795Z,3.37
2019-06-20T03:41:34.538Z,2.87
2019-06-20T03:44:01.307Z,3.13
2019-06-20T03:46:28.050Z,2.70
2019-06-20T03:48:54.820Z,2.50
2019-06-20T03:51:21.580Z,2.87
2019-06-20T03:53:48.342Z,2.93
2019-06-20T03:56:15.108Z,2.97
2019-06-20T03:58:41.842Z,2.57
2019-06-20T04:01:08.619Z,2.90
2019-06-20T04:03:35.359Z,2.57
2019-06-20T04:06:02.123Z,2.57
2019-06-20T04:08:28.875Z,2.80
2019-06-20T04:10:55.640Z,2.67
2019-06-20T04:13:22.390Z,2.70
2019-06-20T04:15:49.215Z,2.23
2019-06-20T04:18:15.947Z,2.80
2019-06-20T04:20:42.714Z,2.80
2019-06-20T04:23:09.460Z,2.80
2019-06-20T04:25:36.242Z,2.40
2019-06-20T04:28:02.996Z,2.40
2019-06-20T04:30:29.788Z,2.50
2019-06-20T04:32:56.522Z,2.57
2019-06-20T04:35:23.316Z,2.70
2019-06-20T04:37:50.095Z,2.70
2019-06-20T04:40:16.858Z,2.50
2019-06-20T04:42:43.613Z,2.50
2019-06-20T04:45:34.698Z,4.03
2019-06-20T04:47:51.737Z,2.80
2019-06-20T04:50:18.497Z,2.33
2019-06-20T04:52:45.248Z,3.53
2019-06-20T04:55:12.008Z,2.23
2019-06-20T04:57:38.762Z,3.10
2019-06-20T05:00:05.523Z,3.20
2019-06-20T05:02:33.292Z,3.00
2019-06-20T05:05:00.282Z,2.37
2019-06-20T05:07:27.007Z,2.63
2019-06-20T05:09:53.790Z,3.13
2019-06-20T05:12:20.996Z,3.10
2019-06-20T05:14:47.763Z,3.00
2019-06-20T05:17:14.509Z,3.10
2019-06-20T05:19:41.267Z,3.00
2019-06-20T05:22:08.021Z,2.97
2019-06-20T05:24:34.851Z,2.50
2019-06-20T05:27:01.606Z,2.80
2019-06-20T05:29:28.371Z,2.73
2019-06-20T05:31:55.147Z,2.77
2019-06-20T05:34:21.890Z,2.07
2019-06-20T05:36:48.867Z,3.00
2019-06-20T05:39:15.614Z,2.37
2019-06-20T05:41:42.528Z,3.30
2019-06-20T05:44:09.170Z,2.53
2019-06-20T05:46:35.943Z,2.70
2019-06-20T05:49:02.714Z,2.70
2019-06-20T05:51:29.479Z,2.47
2019-06-20T05:53:56.244Z,2.50
2019-06-20T05:56:23.018Z,2.70
2019-06-20T05:58:50.583Z,2.53
2019-06-20T06:01:16.543Z,2.77
2019-06-20T06:03:43.296Z,2.40
2019-06-20T06:06:10.067Z,2.53
2019-06-20T06:08:36.861Z,2.70
2019-06-20T06:11:03.834Z,2.60
2019-06-20T06:13:30.612Z,2.50
2019-06-20T06:15:57.404Z,2.40
2019-06-20T06:18:24.147Z,2.33
2019-06-20T06:20:50.936Z,3.00
2019-06-20T06:23:17.708Z,2.80
2019-06-20T06:25:44.571Z,2.73
2019-06-20T06:28:12.557Z,3.13
2019-06-20T06:30:38.237Z,2.73
2019-06-20T06:33:04.983Z,2.50
2019-06-20T06:35:31.754Z,3.57
2019-06-20T06:37:58.527Z,2.80
2019-06-20T06:40:25.298Z,2.90
2019-06-20T06:42:52.073Z,2.80
2019-06-20T06:45:18.884Z,2.53
2019-06-20T06:47:45.736Z,2.63
2019-06-20T06:50:12.495Z,2.93
2019-06-20T06:52:39.258Z,2.77
2019-06-20T06:55:06.041Z,3.27
2019-06-20T06:57:32.808Z,2.80
2019-06-20T06:59:59.600Z,2.80
2019-06-20T07:02:26.328Z,3.27
2019-06-20T07:04:53.072Z,2.70
2019-06-20T07:07:19.839Z,2.50
2019-06-20T07:09:46.578Z,2.80
2019-06-20T07:12:13.378Z,2.80
2019-06-20T07:14:42.703Z,2.53
2019-06-20T07:17:06.946Z,3.10
2019-06-20T07:19:33.683Z,2.87
2019-06-20T07:22:00.468Z,2.80
2019-06-20T07:24:27.198Z,2.58
2019-06-20T07:26:53.959Z,3.10
2019-06-20T07:29:20.794Z,2.60
2019-06-20T07:31:47.550Z,2.50
2019-06-20T07:34:14.275Z,2.83
2019-06-20T07:36:41.039Z,2.40
2019-06-20T07:39:08.307Z,2.50
2019-06-20T07:41:35.147Z,2.57
2019-06-20T07:44:01.922Z,2.75
2019-06-20T07:46:29.518Z,2.45
2019-06-20T07:48:58.382Z,2.00
2019-06-20T07:51:27.329Z,2.67
2019-06-20T07:53:54.233Z,2.10
2019-06-20T07:56:22.364Z,2.47
2019-06-20T07:58:49.103Z,2.23
2019-06-20T08:01:16.650Z,2.20
2019-06-20T08:03:45.265Z,2.47
2019-06-20T08:06:10.268Z,2.58
2019-06-20T08:08:37.051Z,2.30
2019-06-20T08:11:03.811Z,2.20
2019-06-20T08:13:30.564Z,2.70
2019-06-20T08:15:57.806Z,2.20
2019-06-20T08:18:24.553Z,2.47
2019-06-20T08:20:51.422Z,2.53
2019-06-20T08:23:18.233Z,2.60
2019-06-20T08:25:45.072Z,3.13
2019-06-20T08:28:11.970Z,2.47
2019-06-20T08:30:38.724Z,2.20
2019-06-20T08:33:11.714Z,2.27
2019-06-20T08:35:32.443Z,1.90
2019-06-20T08:38:00.957Z,2.50
2019-06-20T08:40:26.137Z,2.72
2019-06-20T08:42:53.124Z,3.00
2019-06-20T08:45:20.070Z,2.50
2019-06-20T08:47:46.947Z,2.70
2019-06-20T08:50:13.796Z,2.47
2019-06-20T08:52:40.664Z,2.40
2019-06-20T08:55:07.443Z,2.60
2019-06-20T08:57:34.247Z,2.53
2019-06-20T09:00:01.035Z,2.20
2019-06-20T09:02:27.827Z,2.10
2019-06-20T09:04:55.213Z,2.10
2019-06-20T09:07:21.418Z,2.07
2019-06-20T09:09:48.168Z,2.13
2019-06-20T09:12:14.923Z,2.37
2019-06-20T09:14:41.718Z,2.47
2019-06-20T09:17:08.516Z,2.17
2019-06-20T09:19:35.219Z,2.40
2019-06-20T09:22:02.020Z,2.10
2019-06-20T09:24:28.846Z,1.80
2019-06-20T09:26:55.728Z,1.80
2019-06-20T09:29:22.562Z,2.77
2019-06-20T09:31:49.346Z,2.30
2019-06-20T09:34:16.187Z,2.40
2019-06-20T09:36:45.198Z,1.80
2019-06-20T09:39:11.972Z,2.10
2019-06-20T09:41:38.757Z,1.80
2019-06-20T09:44:05.576Z,2.07
2019-06-20T09:46:32.397Z,1.80
2019-06-20T09:48:59.155Z,2.00
2019-06-20T09:51:26.003Z,2.10
2019-06-20T09:53:53.881Z,1.63
2019-06-20T09:56:19.626Z,1.93
2019-06-20T09:58:47.853Z,1.80
2019-06-20T10:01:13.195Z,1.80
2019-06-20T10:03:40.013Z,1.80
2019-06-20T10:06:14.133Z,1.77
2019-06-20T10:08:33.687Z,2.00
2019-06-20T10:11:00.514Z,1.90
2019-06-20T10:13:27.286Z,1.40
2019-06-20T10:15:54.047Z,1.87
2019-06-20T10:18:20.859Z,1.67
2019-06-20T10:20:48.844Z,1.53
2019-06-20T10:23:14.531Z,1.90
2019-06-20T10:25:41.436Z,1.73
2019-06-20T10:28:08.347Z,1.60
2019-06-20T10:30:35.091Z,1.90
2019-06-20T10:33:01.903Z,1.90
2019-06-20T10:35:28.649Z,2.10
2019-06-20T10:37:56.983Z,1.90
2019-06-20T10:40:22.614Z,2.03
2019-06-20T10:42:50.247Z,1.40
2019-06-20T10:45:16.421Z,1.97
2019-06-20T10:47:44.079Z,1.70
2019-06-20T10:50:10.098Z,1.97
2019-06-20T10:52:36.877Z,1.80
2019-06-20T10:55:04.362Z,2.10
2019-06-20T10:57:31.170Z,2.27
2019-06-20T10:59:57.919Z,1.70
2019-06-20T11:02:24.689Z,1.63
2019-06-20T11:04:51.475Z,1.70
2019-06-20T11:07:18.272Z,1.90
2019-06-20T11:09:45.246Z,1.80
2019-06-20T11:12:11.766Z,1.93
2019-06-20T11:14:39.139Z,1.43
2019-06-20T11:17:05.362Z,1.70
2019-06-20T11:19:32.200Z,1.60
2019-06-20T11:21:58.983Z,1.60
2019-06-20T11:24:25.746Z,1.43
2019-06-20T11:26:53.557Z,1.43
2019-06-20T11:29:20.367Z,1.70
2019-06-20T11:31:48.246Z,1.40
2019-06-20T11:34:13.991Z,1.27
2019-06-20T11:36:40.752Z,1.37
2019-06-20T11:39:07.587Z,1.50
2019-06-20T11:41:34.962Z,1.63
2019-06-20T11:44:01.159Z,1.52
2019-06-20T11:46:28.050Z,1.50
2019-06-20T11:48:54.800Z,1.77
2019-06-20T11:51:21.566Z,1.67
2019-06-20T11:53:48.446Z,1.37
2019-06-20T11:56:15.206Z,1.67
2019-06-20T11:58:42.023Z,1.75
2019-06-20T12:01:08.764Z,1.57
2019-06-20T12:03:35.983Z,1.80
2019-06-20T12:06:02.724Z,1.90
2019-06-20T12:08:29.509Z,2.07
2019-06-20T12:10:56.340Z,1.60
2019-06-20T12:13:23.068Z,1.90
2019-06-20T12:15:49.875Z,1.70
2019-06-20T12:18:16.643Z,1.40
2019-06-20T12:20:44.504Z,1.60
2019-06-20T12:23:10.169Z,1.37
2019-06-20T12:25:39.062Z,1.30
2019-06-20T12:28:03.764Z,2.00
2019-06-20T12:30:30.598Z,1.57
2019-06-20T12:32:57.450Z,1.50
2019-06-20T12:35:24.204Z,1.57
2019-06-20T12:37:52.134Z,1.40
2019-06-20T12:40:17.739Z,1.60
2019-06-20T12:42:44.860Z,1.27
2019-06-20T12:45:12.875Z,1.57
2019-06-20T12:47:40.237Z,1.57
2019-06-20T12:50:06.371Z,1.33
2019-06-20T12:52:33.197Z,1.30
2019-06-20T12:54:59.939Z,1.40
2019-06-20T12:57:26.721Z,1.30
2019-06-20T12:59:53.510Z,1.20
2019-06-20T13:02:20.308Z,1.63
2019-06-20T13:04:47.124Z,1.20
2019-06-20T13:07:13.895Z,1.40
2019-06-20T13:09:42.116Z,1.43
2019-06-20T13:12:07.439Z,1.27
2019-06-20T13:14:34.232Z,1.73
2019-06-20T13:17:01.071Z,1.57
2019-06-20T13:19:27.946Z,1.60
2019-06-20T13:21:54.723Z,1.97
2019-06-20T13:24:21.521Z,1.67
2019-06-20T13:26:49.007Z,1.77
2019-06-20T13:29:15.511Z,1.67
2019-06-20T13:31:58.456Z,1.83
2019-06-20T13:34:09.605Z,1.70
2019-06-20T13:36:36.396Z,1.87
2019-06-20T13:39:04.921Z,1.73
2019-06-20T13:41:32.475Z,2.20
2019-06-20T13:43:59.279Z,1.70
2019-06-20T13:46:26.047Z,1.87
2019-06-20T13:48:52.971Z,1.87
2019-06-20T13:51:21.539Z,1.93
2019-06-20T13:53:48.648Z,1.53
2019-06-20T13:56:15.060Z,1.80
2019-06-20T13:58:42.298Z,1.40
2019-06-20T14:01:08.579Z,1.70
2019-06-20T14:03:35.346Z,1.83
2019-06-20T14:06:02.103Z,1.50
2019-06-20T14:08:28.886Z,1.83
2019-06-20T14:10:55.680Z,1.60
2019-06-20T14:13:22.466Z,1.93
2019-06-20T14:15:49.211Z,1.40
2019-06-20T14:18:15.984Z,1.77
2019-06-20T14:20:44.573Z,1.93
2019-06-20T14:23:09.556Z,1.60
2019-06-20T14:25:36.273Z,1.77
2019-06-20T14:28:03.058Z,2.10
2019-06-20T14:30:29.860Z,1.80
2019-06-20T14:32:56.651Z,1.80
2019-06-20T14:35:23.439Z,1.63
2019-06-20T14:37:51.816Z,1.93
2019-06-20T14:40:16.961Z,1.90
2019-06-20T14:42:44.538Z,1.77
2019-06-20T14:45:10.491Z,1.70
2019-06-20T14:47:37.242Z,1.83
2019-06-20T14:50:04.678Z,1.70
2019-06-20T14:52:31.437Z,1.60
2019-06-20T14:54:58.212Z,1.60
2019-06-20T14:57:24.951Z,1.30
2019-06-20T14:59:52.650Z,1.10
2019-06-20T15:02:18.489Z,1.00
2019-06-20T15:04:46.230Z,0.90
2019-06-20T15:07:12.031Z,1.50
2019-06-20T15:09:38.809Z,0.90
2019-06-20T15:12:05.555Z,1.20
2019-06-20T15:14:32.319Z,1.17
2019-06-20T15:16:59.072Z,1.13
2019-06-20T15:19:25.859Z,1.20
2019-06-20T15:21:52.621Z,1.20
2019-06-20T15:24:19.442Z,1.40
2019-06-20T15:26:47.655Z,1.20
2019-06-20T15:29:12.934Z,1.17
2019-06-20T15:31:39.754Z,1.43
2019-06-20T15:34:06.517Z,1.40
2019-06-20T15:36:33.280Z,1.40
2019-06-20T15:39:00.123Z,1.43
2019-06-20T15:41:26.860Z,0.90
2019-06-20T15:43:53.824Z,1.50
2019-06-20T15:46:20.415Z,1.73
2019-06-20T15:48:47.171Z,1.30
2019-06-20T15:51:13.907Z,1.50
2019-06-20T15:53:40.674Z,1.10
2019-06-20T15:56:07.479Z,1.40
2019-06-20T15:58:34.246Z,1.37
2019-06-20T16:01:01.000Z,1.47
2019-06-20T16:03:28.001Z,1.53
2019-06-20T16:05:55.683Z,1.50
2019-06-20T16:08:22.461Z,1.40
2019-06-20T16:10:49.235Z,1.30
2019-06-20T16:13:16.007Z,1.30
2019-06-20T16:15:42.817Z,1.23
2019-06-20T16:18:09.559Z,1.43
2019-06-20T16:20:36.327Z,1.30
2019-06-20T16:23:03.080Z,1.80
2019-06-20T16:25:29.843Z,1.10
2019-06-20T16:27:56.610Z,1.00
2019-06-20T16:30:23.372Z,1.03
2019-06-20T16:32:50.123Z,0.90
2019-06-20T16:35:16.891Z,1.10
2019-06-20T16:37:43.635Z,0.70
2019-06-20T16:40:10.450Z,0.80
2019-06-20T16:42:37.206Z,1.00
2019-06-20T16:45:04.310Z,0.90
2019-06-20T16:47:31.076Z,0.90
2019-06-20T16:49:57.831Z,0.97
2019-06-20T16:52:24.571Z,0.90
2019-06-20T16:54:51.406Z,0.93
2019-06-20T16:57:18.152Z,0.90
2019-06-20T16:59:44.932Z,0.80
2019-06-20T17:02:11.728Z,1.17
2019-06-20T17:04:38.530Z,1.10
2019-06-20T17:07:05.278Z,0.73
2019-06-20T17:09:32.064Z,0.80
2019-06-20T17:11:58.836Z,1.33
2019-06-20T17:14:25.662Z,1.00
2019-06-20T17:16:52.347Z,0.80
2019-06-20T17:19:19.102Z,1.20
2019-06-20T17:21:45.839Z,1.13
2019-06-20T17:24:12.623Z,1.10
2019-06-20T17:26:39.395Z,1.27
2019-06-20T17:29:06.135Z,1.13
2019-06-20T17:31:32.902Z,1.10
2019-06-20T17:33:59.663Z,0.90
2019-06-20T17:36:26.418Z,1.20
2019-06-20T17:38:53.211Z,1.00
2019-06-20T17:41:19.971Z,0.97
2019-06-20T17:43:46.718Z,0.83
2019-06-20T17:46:13.459Z,1.10
2019-06-20T17:48:40.290Z,0.93
2019-06-20T17:51:07.038Z,1.00
2019-06-20T17:53:34.866Z,1.10
2019-06-20T17:56:01.770Z,0.97
2019-06-20T17:58:28.492Z,0.80
2019-06-20T18:00:55.390Z,0.97
2019-06-20T18:03:22.094Z,0.90
2019-06-20T18:05:48.877Z,0.73
2019-06-20T18:08:15.772Z,0.93
2019-06-20T18:10:43.412Z,0.80
2019-06-20T18:13:10.138Z,0.80
2019-06-20T18:15:36.902Z,1.10
2019-06-20T18:18:03.663Z,0.70
2019-06-20T18:20:30.437Z,0.90
2019-06-20T18:22:57.172Z,0.93
2019-06-20T18:25:23.934Z,0.80
2019-06-20T18:27:50.811Z,0.93
2019-06-20T18:30:17.581Z,1.00
2019-06-20T18:32:44.335Z,0.93
2019-06-20T18:35:11.163Z,1.20
2019-06-20T18:37:37.914Z,0.80
2019-06-20T18:40:04.900Z,0.90
2019-06-20T18:42:31.667Z,1.10
2019-06-20T18:44:58.440Z,0.70
2019-06-20T18:47:25.209Z,0.80
2019-06-20T18:49:52.079Z,0.90
2019-06-20T18:52:18.855Z,0.90
2019-06-20T18:54:45.610Z,1.10
2019-06-20T18:57:12.373Z,1.20
2019-06-20T18:59:39.146Z,1.00
2019-06-20T19:02:06.627Z,1.10
2019-06-20T19:04:46.312Z,0.90
2019-06-20T19:07:00.051Z,1.00
2019-06-20T19:09:26.839Z,1.00
2019-06-20T19:11:53.652Z,1.00
2019-06-20T19:14:20.606Z,0.90
2019-06-20T19:16:47.342Z,1.00
2019-06-20T19:19:14.100Z,1.23
2019-06-20T19:21:40.850Z,1.30
2019-06-20T19:24:07.607Z,0.98
2019-06-20T19:26:34.434Z,1.23
2019-06-20T19:29:01.207Z,1.10
2019-06-20T19:31:27.945Z,0.93
2019-06-20T19:33:54.739Z,1.33
2019-06-20T19:36:21.497Z,1.23
2019-06-20T19:38:48.266Z,1.07
2019-06-20T19:41:15.079Z,1.30
2019-06-20T19:43:41.863Z,1.20
2019-06-20T19:46:08.647Z,1.20
2019-06-20T19:48:36.991Z,1.00
2019-06-20T19:51:03.312Z,1.10
2019-06-20T19:53:30.088Z,1.40
2019-06-20T19:55:56.881Z,1.17
2019-06-20T19:58:23.723Z,1.20
2019-06-20T20:00:50.495Z,0.90
2019-06-20T20:03:17.250Z,0.90
2019-06-20T20:05:44.101Z,1.00
2019-06-20T20:08:10.931Z,1.00
2019-06-20T20:10:41.850Z,1.00
2019-06-20T20:13:08.573Z,1.37
2019-06-20T20:15:35.352Z,0.87
2019-06-20T20:18:02.118Z,1.10
2019-06-20T20:20:28.886Z,1.07
2019-06-20T20:22:55.645Z,1.20
2019-06-20T20:25:22.418Z,1.10
2019-06-20T20:27:49.176Z,0.97
2019-06-20T20:30:16.091Z,1.20
2019-06-20T20:32:42.831Z,1.20
2019-06-20T20:35:09.623Z,1.50
2019-06-20T20:37:36.413Z,1.13
2019-06-20T20:40:03.881Z,1.50
2019-06-20T20:42:30.629Z,1.40
2019-06-20T20:44:57.439Z,1.40
2019-06-20T20:47:24.186Z,1.33
2019-06-20T20:49:50.971Z,1.10
2019-06-20T20:52:17.745Z,1.50
2019-06-20T20:54:44.535Z,1.40
2019-06-20T20:57:11.355Z,1.23
2019-06-20T20:59:38.131Z,1.47
2019-06-20T21:02:04.908Z,1.50
2019-06-20T21:04:31.679Z,1.77
2019-06-20T21:06:58.426Z,1.63
2019-06-20T21:09:25.258Z,1.47
2019-06-20T21:11:51.989Z,1.90
2019-06-20T21:14:18.778Z,1.70
2019-06-20T21:16:45.582Z,1.70
2019-06-20T21:19:12.350Z,1.90
2019-06-20T21:21:39.167Z,2.03
2019-06-20T21:24:05.967Z,1.87
2019-06-20T21:26:48.255Z,1.80
2019-06-20T21:28:59.508Z,1.73
2019-06-20T21:31:26.286Z,1.70
2019-06-20T21:33:54.489Z,1.70
2019-06-20T21:36:19.853Z,1.60
2019-06-20T21:38:46.623Z,1.90
2019-06-20T21:41:13.386Z,2.23
2019-06-20T21:43:40.252Z,2.00
2019-06-20T21:46:07.091Z,1.70
2019-06-20T21:48:33.876Z,1.50
2019-06-20T21:51:00.781Z,1.90
2019-06-20T21:53:27.559Z,2.30
2019-06-20T21:55:54.364Z,2.00
2019-06-20T21:58:21.107Z,1.90
2019-06-20T22:00:48.530Z,1.77
2019-06-20T22:03:15.342Z,2.10
2019-06-20T22:05:42.062Z,2.00
2019-06-20T22:08:08.806Z,1.80
2019-06-20T22:10:35.628Z,2.10
2019-06-20T22:13:03.482Z,1.93
2019-06-20T22:15:30.256Z,1.90
2019-06-20T22:17:57.052Z,1.70
2019-06-20T22:20:23.807Z,1.50
2019-06-20T22:22:50.562Z,1.70
2019-06-20T22:25:17.446Z,1.90
2019-06-20T22:27:44.169Z,1.83
2019-06-20T22:30:11.019Z,1.70
2019-06-20T22:32:37.775Z,1.80
2019-06-20T22:35:04.774Z,1.63
2019-06-20T22:37:31.537Z,1.50
2019-06-20T22:39:58.355Z,1.87
2019-06-20T22:42:25.093Z,1.90
2019-06-20T22:44:51.866Z,1.90
2019-06-20T22:47:18.606Z,1.80
2019-06-20T22:49:45.421Z,2.00
2019-06-20T22:52:12.271Z,1.40
2019-06-20T22:54:39.022Z,1.50
2019-06-20T22:57:05.785Z,1.90
2019-06-20T22:59:32.603Z,1.60
2019-06-20T23:01:59.410Z,1.87
2019-06-20T23:04:26.168Z,1.90
2019-06-20T23:06:56.794Z,1.83
2019-06-20T23:09:19.699Z,2.10
2019-06-20T23:11:46.507Z,2.23
2019-06-20T23:14:13.336Z,2.30
2019-06-20T23:16:40.093Z,1.90
2019-06-20T23:19:06.882Z,2.13
2019-06-20T23:21:33.647Z,1.97
2019-06-20T23:24:00.428Z,1.90
2019-06-20T23:26:27.179Z,2.00
2019-06-20T23:28:59.814Z,2.00
2019-06-20T23:31:26.607Z,1.70
2019-06-20T23:33:53.345Z,2.00
2019-06-20T23:36:20.135Z,2.20
2019-06-20T23:38:46.875Z,1.90
2019-06-20T23:41:13.667Z,1.87
2019-06-20T23:43:40.417Z,1.90
2019-06-20T23:46:07.209Z,2.17
2019-06-20T23:48:33.954Z,1.90
2019-06-20T23:51:00.783Z,2.10
2019-06-20T23:53:27.546Z,2.03
2019-06-20T23:55:54.371Z,2.00
2019-06-20T23:58:21.160Z,2.17
